createdAt,value
2022-09-14T00:00:15.422Z,83.27
2022-09-14T00:06:17.421Z,83.25
2022-09-14T00:12:19.820Z,83.05
2022-09-14T00:18:21.708Z,82.08
2022-09-14T00:24:26.607Z,81.07
2022-09-14T00:30:28.624Z,80.53
2022-09-14T00:36:32.450Z,79.65
2022-09-14T00:42:34.358Z,78.17
2022-09-14T00:48:36.315Z,76.92
2022-09-14T00:54:46.631Z,76.80
2022-09-14T01:00:48.637Z,77.07
2022-09-14T01:07:02.918Z,78.12
2022-09-14T01:13:32.605Z,78.17
2022-09-14T01:20:19.483Z,80.02
2022-09-14T01:26:47.257Z,80.37
2022-09-14T01:33:13.169Z,81.13
2022-09-14T01:39:17.593Z,80.98
2022-09-14T01:45:22.581Z,80.95
2022-09-14T01:51:37.916Z,81.71
2022-09-14T01:57:46.280Z,82.08
2022-09-14T02:04:01.611Z,82.93
2022-09-14T02:10:09.193Z,83.37
2022-09-14T02:16:11.263Z,84.05
2022-09-14T02:22:13.609Z,84.70
2022-09-14T02:28:16.431Z,85.60
2022-09-14T02:34:37.214Z,85.87
2022-09-14T02:41:00.174Z,86.27
2022-09-14T02:47:15.064Z,86.72
2022-09-14T02:53:35.799Z,87.06
2022-09-14T02:59:37.853Z,87.11
2022-09-14T03:05:40.226Z,86.71
2022-09-14T03:11:42.185Z,86.97
2022-09-14T03:17:49.098Z,87.24
2022-09-14T03:23:55.083Z,87.67
2022-09-14T03:29:57.017Z,88.11
2022-09-14T03:35:59.604Z,88.18
2022-09-14T03:42:01.531Z,88.36
2022-09-14T03:48:03.555Z,88.58
2022-09-14T03:54:05.504Z,88.83
2022-09-14T04:00:09.112Z,89.19
2022-09-14T04:06:11.569Z,89.43
2022-09-14T04:12:13.524Z,89.46
2022-09-14T04:18:15.390Z,89.78
2022-09-14T04:24:18.006Z,89.63
2022-09-14T04:30:20.294Z,89.92
2022-09-14T04:36:25.999Z,89.96
2022-09-14T04:42:29.633Z,89.88
2022-09-14T04:48:33.739Z,90.02
2022-09-14T04:54:35.724Z,90.30
2022-09-14T05:00:37.660Z,90.79
2022-09-14T05:06:42.186Z,90.67
2022-09-14T05:12:44.120Z,89.91
2022-09-14T05:18:46.916Z,90.05
2022-09-14T05:24:48.850Z,90.00
2022-09-14T05:30:50.803Z,88.78
2022-09-14T05:36:52.765Z,88.66
2022-09-14T05:42:54.666Z,88.09
2022-09-14T05:48:56.642Z,87.46
2022-09-14T05:54:58.518Z,86.55
2022-09-14T06:01:17.950Z,87.43
2022-09-14T06:07:19.970Z,87.20
2022-09-14T06:13:23.387Z,87.17
2022-09-14T06:19:25.292Z,87.64
2022-09-14T06:25:28.136Z,88.20
2022-09-14T06:31:30.115Z,87.65
2022-09-14T06:37:32.015Z,87.94
2022-09-14T06:43:37.584Z,87.21
2022-09-14T06:49:39.522Z,87.59
2022-09-14T06:55:41.448Z,87.91
2022-09-14T07:08:00.094Z,86.96
2022-09-14T07:14:02.273Z,86.47
2022-09-14T07:32:35.187Z,84.69
2022-09-14T07:38:51.711Z,84.44
2022-09-14T07:51:10.667Z,84.29
2022-09-14T07:57:12.574Z,83.53
2022-09-14T08:03:14.473Z,83.27
2022-09-14T08:09:16.392Z,83.32
2022-09-14T08:15:28.238Z,84.11
2022-09-14T08:21:32.907Z,85.07
2022-09-14T08:27:34.776Z,84.42
2022-09-14T08:33:41.542Z,83.24
2022-09-14T08:39:45.356Z,82.75
2022-09-14T08:45:50.771Z,83.45
2022-09-14T08:51:52.987Z,83.87
2022-09-14T08:58:09.852Z,81.82
2022-09-14T09:04:20.405Z,82.97
2022-09-14T09:10:25.665Z,83.47
2022-09-14T09:16:28.511Z,84.25
2022-09-14T09:22:45.332Z,81.82
2022-09-14T09:28:54.379Z,80.95
2022-09-14T09:34:56.309Z,82.05
2022-09-14T09:47:07.407Z,81.44
2022-09-14T09:53:17.245Z,79.19
2022-09-14T09:59:29.322Z,79.46
2022-09-14T10:05:33.071Z,79.44
2022-09-14T10:11:38.954Z,80.53
2022-09-14T10:17:41.304Z,80.82
2022-09-14T10:23:44.401Z,80.38
2022-09-14T10:29:50.008Z,79.52
2022-09-14T10:42:39.063Z,79.29
2022-09-14T10:49:18.330Z,79.74
2022-09-14T10:55:43.811Z,78.11
2022-09-14T11:02:30.701Z,78.92
2022-09-14T11:08:48.307Z,81.17
2022-09-14T11:33:31.397Z,81.24
2022-09-14T11:39:43.146Z,79.78
2022-09-14T11:45:58.883Z,80.12
2022-09-14T11:52:12.336Z,82.18
2022-09-14T11:58:26.130Z,82.87
2022-09-14T12:04:28.038Z,83.26
2022-09-14T12:10:30.312Z,83.74
2022-09-14T12:16:34.626Z,84.97
2022-09-14T12:22:38.104Z,85.28
2022-09-14T12:28:48.399Z,87.27
2022-09-14T12:35:43.366Z,88.75
2022-09-14T12:41:48.143Z,88.68
2022-09-14T12:47:51.834Z,89.47
2022-09-14T12:54:08.409Z,89.98
2022-09-14T13:00:19.912Z,90.08
2022-09-14T13:06:24.070Z,90.88
2022-09-14T13:12:43.199Z,90.78
2022-09-14T13:18:45.111Z,90.80
2022-09-14T13:24:49.031Z,90.87
2022-09-14T13:30:59.893Z,91.31
2022-09-14T13:37:02.602Z,89.84
2022-09-14T13:43:04.834Z,91.12
2022-09-14T13:49:07.769Z,90.21
2022-09-14T13:55:25.672Z,90.62
2022-09-14T14:01:28.967Z,88.56
2022-09-14T14:07:36.349Z,88.80
2022-09-14T14:13:38.594Z,87.67
2022-09-14T14:19:40.738Z,88.43
2022-09-14T14:25:55.191Z,88.75
2022-09-14T14:31:57.239Z,90.03
2022-09-14T14:37:59.455Z,90.75
2022-09-14T14:44:01.676Z,91.64
2022-09-14T14:50:04.008Z,90.90
2022-09-14T14:56:06.279Z,92.14
2022-09-14T15:02:09.589Z,92.57
2022-09-14T15:08:14.458Z,92.40
2022-09-14T15:14:21.336Z,92.94
2022-09-14T15:20:26.242Z,91.89
2022-09-14T15:26:28.162Z,90.96
2022-09-14T15:32:30.215Z,90.87
2022-09-14T15:38:32.146Z,91.37
2022-09-14T15:44:34.068Z,91.29
2022-09-14T15:50:40.288Z,91.70
2022-09-14T15:56:42.198Z,92.69
2022-09-14T16:02:44.190Z,93.84
2022-09-14T16:08:46.084Z,93.83
2022-09-14T16:14:47.986Z,95.19
2022-09-14T16:20:49.895Z,95.15
2022-09-14T16:26:52.763Z,95.71
2022-09-14T16:32:54.611Z,96.66
2022-09-14T16:38:59.680Z,97.06
2022-09-14T16:45:01.795Z,96.82
2022-09-14T16:51:04.155Z,97.62
2022-09-14T16:57:06.064Z,96.48
2022-09-14T17:03:07.931Z,95.13
2022-09-14T17:09:28.643Z,96.01
2022-09-14T17:15:31.093Z,95.85
2022-09-14T17:21:39.124Z,95.80
2022-09-14T17:27:40.990Z,96.71
2022-09-14T17:33:43.145Z,97.65
2022-09-14T17:39:45.067Z,97.97
2022-09-14T17:45:56.502Z,98.37
2022-09-14T17:51:58.354Z,98.54
2022-09-14T17:58:00.214Z,98.78
2022-09-14T18:04:06.672Z,99.24
2022-09-14T18:10:08.782Z,100.00
2022-09-14T18:16:11.452Z,100.00
2022-09-14T18:22:15.640Z,100.00
2022-09-14T18:28:17.608Z,100.00
2022-09-14T18:34:21.298Z,100.00
2022-09-14T18:40:24.215Z,100.00
2022-09-14T18:46:28.430Z,100.00
2022-09-14T18:52:30.608Z,100.00
2022-09-14T18:58:35.302Z,100.00
2022-09-14T19:04:38.402Z,100.00
2022-09-14T19:10:40.697Z,100.00
2022-09-14T19:16:42.765Z,100.00
2022-09-14T19:22:44.658Z,100.00
2022-09-14T19:28:46.993Z,100.00
2022-09-14T19:34:49.530Z,100.00
2022-09-14T19:40:52.965Z,100.00
2022-09-14T19:46:55.889Z,100.00
2022-09-14T19:53:00.230Z,100.00
2022-09-14T19:59:07.377Z,100.00
2022-09-14T20:05:10.590Z,100.00
2022-09-14T20:11:19.743Z,100.00
2022-09-14T20:17:22.327Z,100.00
2022-09-14T20:23:24.197Z,100.00
2022-09-14T20:29:30.081Z,100.00
2022-09-14T20:35:32.287Z,100.00
2022-09-14T20:41:36.027Z,100.00
2022-09-14T20:47:37.947Z,100.00
2022-09-14T20:53:42.499Z,100.00
2022-09-14T20:59:44.333Z,100.00
2022-09-14T21:05:46.197Z,100.00
2022-09-14T21:11:48.265Z,100.00
2022-09-14T21:17:50.130Z,100.00
2022-09-14T21:23:53.360Z,100.00
2022-09-14T21:29:55.194Z,100.00
2022-09-14T21:36:10.479Z,100.00
2022-09-14T21:42:12.343Z,100.00
2022-09-14T21:48:14.212Z,100.00
2022-09-14T21:54:16.517Z,100.00
2022-09-14T22:00:18.882Z,100.00
2022-09-14T22:06:25.058Z,100.00
2022-09-14T22:12:26.903Z,100.00
2022-09-14T22:18:28.743Z,100.00
2022-09-14T22:24:38.112Z,100.00
2022-09-14T22:31:08.055Z,100.00
2022-09-14T22:37:10.065Z,100.00
2022-09-14T22:43:11.934Z,100.00
2022-09-14T22:49:13.799Z,100.00
2022-09-14T22:55:15.767Z,100.00
2022-09-14T23:01:29.479Z,100.00
2022-09-14T23:07:31.830Z,100.00
2022-09-14T23:13:38.605Z,100.00
2022-09-14T23:19:40.659Z,100.00
2022-09-14T23:25:42.541Z,100.00
2022-09-14T23:31:44.632Z,100.00
2022-09-14T23:37:46.578Z,100.00
2022-09-14T23:43:48.640Z,100.00
2022-09-14T23:49:50.532Z,100.00
2022-09-14T23:55:53.352Z,100.00
